Bookmark and Share
Track history (hours):
 

Eendracht (Netherlands)

Last reported at 2014-Apr-19 16:33 UTC. Time now 2014-Apr-19 17:13 UTC.
Position N 51°54' E 004°29'.

Length 59 m; beam 12 m; draft 5 m.

Type: Sailing vessel. MMSI: 244543000.

NotesDate/timePositionNaut miles runAvg speedWind from/ knotsBaromVisibWave heightAir tempDewpointWater temp
2014-Apr-19 16:33N 51°54' E 004°29'6 5.6
2014-Apr-19 15:33N 51°54' E 004°20'7 6.6
2014-Apr-19 14:33N 51°57' E 004°11'6 5.8
2014-Apr-19 13:33N 51°60' E 004°03'2 2.3
2014-Apr-19 12:34N 52°02' E 004°04'4 4.1
2014-Apr-19 11:33N 52°06' E 004°05'1 0.6
2014-Apr-19 10:33N 52°06' E 004°06'3 3.3
2014-Apr-19 09:33N 52°02' E 004°05'3 3.0
2014-Apr-19 08:33N 51°59' E 004°04'9 8.5
2014-Apr-19 07:33N 51°55' E 004°15'7 7.1
2014-Apr-19 06:33N 51°54' E 004°27'1 1.4
2014-Apr-19 05:31N 51°54' E 004°29'0 0.0
2014-Apr-19 04:31N 51°54' E 004°29'0 0.0
2014-Apr-19 03:31N 51°54' E 004°29'0 0.0
2014-Apr-19 02:31N 51°54' E 004°29'0 0.0
2014-Apr-19 01:25N 51°54' E 004°29'0 0.0
2014-Apr-19 00:34N 51°54' E 004°29'0 0.0
2014-Apr-18 23:30N 51°54' E 004°29'0 0.0
2014-Apr-18 22:33N 51°54' E 004°29'0 0.0
2014-Apr-18 21:30N 51°54' E 004°29'0 0.0
2014-Apr-18 20:30N 51°54' E 004°29'0 0.0
2014-Apr-18 19:33N 51°54' E 004°29'0 0.0
2014-Apr-18 18:33N 51°54' E 004°29'0 0.0
2014-Apr-18 17:33N 51°54' E 004°29'165165.4
2014-Apr-18 16:33N 51°54' E 000°01'165160.5
2014-Apr-18 15:32N 51°54' E 004°28'0 0.0
2014-Apr-18 14:32N 51°54' E 004°28'0 0.0
2014-Apr-18 13:32N 51°54' E 004°28'3 2.7
2014-Apr-18 12:33N 51°54' E 004°23'4 4.2
2014-Apr-18 11:33N 51°54' E 004°17'4 4.2
2014-Apr-18 10:33N 51°57' E 004°11'4 4.1
2014-Apr-18 09:33N 51°59' E 004°06'3 3.2
2014-Apr-18 08:33N 52°02' E 004°04'1 1.5
2014-Apr-18 07:33N 52°02' E 004°07'3 3.2
2014-Apr-18 06:33N 52°05' E 004°10'4 4.0
2014-Apr-18 05:34N 52°08' E 004°14'1 0.9
2014-Apr-18 04:33N 52°09' E 004°14'2 1.8
2014-Apr-18 03:33N 52°07' E 004°15'1 0.9
2014-Apr-18 02:33N 52°08' E 004°14'1 0.9
2014-Apr-18 01:33N 52°07' E 004°15'0 0.1
2014-Apr-18 00:33N 52°07' E 004°15'0 0.1
2014-Apr-17 23:33N 52°07' E 004°15'0 0.2
2014-Apr-17 22:33N 52°07' E 004°15'5 5.3
2014-Apr-17 21:33N 52°09' E 004°07'6 6.0
2014-Apr-17 20:33N 52°10' E 003°57'6 6.0
2014-Apr-17 19:32N 52°12' E 003°48'5 4.7
2014-Apr-17 18:33N 52°12' E 003°40'5 4.2
2014-Apr-17 17:17N 52°09' E 003°33'4 5.9
2014-Apr-17 16:33N 52°06' E 003°28'6 6.4
2014-Apr-17 15:33N 52°00' E 003°23'7 6.7
2014-Apr-17 14:33N 51°54' E 003°20'6 6.2
2014-Apr-17 13:31N 51°48' E 003°16'5 4.8
2014-Apr-17 12:33N 51°43' E 003°14'3 2.6
2014-Apr-17 11:32N 51°41' E 003°16'3 2.9
2014-Apr-17 10:33N 51°39' E 003°19'2 2.4
2014-Apr-17 09:33N 51°37' E 003°21'3 3.3
2014-Apr-17 08:33N 51°35' E 003°25'4 4.3
2014-Apr-17 07:33N 51°31' E 003°27'7 7.0
2014-Apr-17 06:34N 51°26' E 003°36'0 0.3
2014-Apr-17 05:31N 51°27' E 003°36'0 0.0
2014-Apr-17 04:31N 51°27' E 003°36'0 0.0
2014-Apr-17 03:28N 51°27' E 003°36'0 0.0
2014-Apr-17 02:31N 51°27' E 003°36'0 0.0
2014-Apr-17 01:28N 51°27' E 003°36'0 0.0
2014-Apr-17 00:34N 51°27' E 003°36'0 0.0
2014-Apr-16 23:34N 51°27' E 003°36'0 0.0
2014-Apr-16 22:34N 51°27' E 003°36'0 0.0
2014-Apr-16 21:33N 51°27' E 003°36'0 0.0
2014-Apr-16 20:33N 51°27' E 003°36'0 0.0
2014-Apr-16 19:33N 51°27' E 003°36'0 0.0
2014-Apr-16 18:32N 51°27' E 003°36'0 0.0
2014-Apr-16 17:32N 51°27' E 003°36'0 0.0
2014-Apr-16 16:32N 51°27' E 003°36'0 0.0
2014-Apr-16 15:32N 51°27' E 003°36'1 1.5
2014-Apr-16 14:33N 51°26' E 003°38'5 5.2
2014-Apr-16 13:34N 51°24' E 003°45'1 0.6
2014-Apr-16 12:33N 51°24' E 003°46'0 0.2
2014-Apr-16 11:33N 51°24' E 003°46'0 0.2
2014-Apr-16 10:34N 51°24' E 003°46'0 0.5
2014-Apr-16 09:34N 51°23' E 003°47'2 2.3
2014-Apr-16 08:34N 51°24' E 003°43'1 1.0
2014-Apr-16 07:34N 51°24' E 003°45'0 0.2
2014-Apr-16 06:34N 51°24' E 003°45'1 0.6
2014-Apr-16 05:34N 51°24' E 003°44'2 2.1
2014-Apr-16 04:33N 51°25' E 003°41'3 2.8
2014-Apr-16 03:34N 51°26' E 003°37'5 4.8
2014-Apr-16 02:34N 51°25' E 003°29'6 6.0
2014-Apr-16 01:34N 51°24' E 003°20'6 6.4
2014-Apr-16 00:33N 51°23' E 003°10'6 5.7
2014-Apr-15 23:33N 51°22' E 003°01'5 4.5
2014-Apr-15 22:33N 51°26' E 003°00'5 4.9
2014-Apr-15 21:33N 51°30' E 003°06'5 5.0
2014-Apr-15 20:33N 51°33' E 003°12'5 4.6
2014-Apr-15 19:33N 51°37' E 003°12'4 4.1
2014-Apr-15 18:33N 51°41' E 003°11'3 2.5
2014-Apr-15 17:34N 51°44' E 003°11'3 3.2
2014-Apr-15 16:33N 51°43' E 003°16'3 3.2
2014-Apr-15 15:31N 51°44' E 003°21'3 2.9
2014-Apr-15 14:26N 51°45' E 003°26'21 3.6
2014-Apr-15 08:33N 51°58' E 003°52'6 6.2
2014-Apr-15 07:34N 51°60' E 004°01'7 6.6
2014-Apr-15 06:34N 51°57' E 004°11'11 3.6
2014-Apr-15 03:34N 51°54' E 004°28'0 0.0
2014-Apr-15 02:31N 51°54' E 004°28'0 0.0
2014-Apr-15 00:34N 51°54' E 004°28'0 0.0
2014-Apr-14 23:34N 51°54' E 004°28'0 0.0
2014-Apr-14 21:33N 51°54' E 004°28'0 0.0
2014-Apr-14 20:33N 51°54' E 004°28'0 0.0
2014-Apr-14 19:33N 51°54' E 004°28'0 0.0
2014-Apr-14 17:33N 51°54' E 004°28'0 0.0
2014-Apr-14 16:33N 51°54' E 004°28'0 0.0
2014-Apr-14 15:33N 51°54' E 004°28'0 0.0
2014-Apr-14 14:33N 51°54' E 004°28'0 0.0
2014-Apr-14 13:30N 51°54' E 004°28'2 1.3
2014-Apr-14 11:34N 51°54' E 004°24'5 4.7
2014-Apr-14 10:33N 51°54' E 004°16'5 4.6
2014-Apr-14 09:34N 51°57' E 004°10'4 4.0
2014-Apr-14 08:34N 51°59' E 004°05'5 5.3
2014-Apr-14 07:33N 52°04' E 004°07'5 5.4
2014-Apr-14 06:33N 52°07' E 004°14'0 0.2
2014-Apr-14 05:34N 52°07' E 004°15'9 1.2
2014-Apr-13 22:33N 52°03' E 004°03'7 7.0
2014-Apr-13 21:33N 51°59' E 003°53'7 6.8
2014-Apr-13 20:33N 51°58' E 003°42'6 6.2
2014-Apr-13 19:33N 51°56' E 003°33'4 3.2
2014-Apr-13 18:12N 51°52' E 003°30'4 5.2
2014-Apr-13 17:31N 51°49' E 003°29'3 3.1
2014-Apr-13 16:32N 51°46' E 003°26'4 3.8
2014-Apr-13 15:33N 51°43' E 003°22'4 3.6
2014-Apr-13 14:31N 51°40' E 003°20'6 6.2
2014-Apr-13 13:33N 51°34' E 003°24'8 7.6
2014-Apr-13 12:33N 51°28' E 003°31'5 5.3
2014-Apr-13 11:34N 51°27' E 003°39'4 4.0
2014-Apr-13 10:33N 51°24' E 003°45'1 1.4
2014-Apr-13 09:33N 51°24' E 003°46'0 0.5
2014-Apr-13 08:34N 51°24' E 003°46'0 0.5
2014-Apr-13 07:34N 51°24' E 003°45'6 6.2
2014-Apr-13 06:34N 51°26' E 003°36'0 0.3
2014-Apr-13 05:33N 51°27' E 003°36'0 0.0
2014-Apr-13 04:33N 51°27' E 003°36'0 0.0
2014-Apr-13 03:31N 51°27' E 003°36'0 0.0
2014-Apr-13 02:31N 51°27' E 003°36'0 0.0
2014-Apr-13 01:31N 51°27' E 003°36'0 0.0
2014-Apr-13 00:30N 51°27' E 003°36'0 0.0
2014-Apr-12 23:33N 51°27' E 003°36'0 0.0
2014-Apr-12 22:30N 51°27' E 003°36'0 0.0
2014-Apr-12 21:33N 51°27' E 003°36'0 0.0
2014-Apr-12 20:33N 51°27' E 003°36'0 0.0
2014-Apr-12 19:32N 51°27' E 003°36'0 0.0
2014-Apr-12 18:29N 51°27' E 003°36'0 0.0
2014-Apr-12 17:32N 51°27' E 003°36'0 0.0
2014-Apr-12 16:29N 51°27' E 003°36'0 0.0
2014-Apr-12 15:28N 51°27' E 003°36'0 0.1
2014-Apr-12 14:34N 51°27' E 003°36'6 5.8
2014-Apr-12 13:33N 51°24' E 003°44'2 1.9
2014-Apr-12 12:34N 51°23' E 003°47'1 1.3
2014-Apr-12 11:33N 51°23' E 003°49'1 1.5
2014-Apr-12 10:33N 51°23' E 003°47'1 0.7
2014-Apr-12 09:33N 51°24' E 003°46'1 0.6
2014-Apr-12 08:33N 51°24' E 003°47'0 0.4
2014-Apr-12 07:33N 51°23' E 003°47'1 0.5
2014-Apr-12 06:33N 51°23' E 003°46'5 4.9
2014-Apr-12 05:34N 51°26' E 003°40'4 3.7
2014-Apr-12 04:31N 51°25' E 003°34'0 0.0
2014-Apr-12 03:31N 51°25' E 003°34'0 0.0
2014-Apr-12 02:31N 51°25' E 003°34'0 0.0
2014-Apr-12 01:31N 51°25' E 003°34'0 0.0
2014-Apr-12 00:31N 51°25' E 003°34'0 0.1
2014-Apr-11 23:31N 51°25' E 003°35'0 0.0
2014-Apr-11 22:28N 51°25' E 003°35'0 0.0
2014-Apr-11 21:31N 51°25' E 003°35'0 0.0
2014-Apr-11 20:33N 51°25' E 003°35'5 5.3
2014-Apr-11 19:33N 51°29' E 003°30'9 8.8
2014-Apr-11 18:33N 51°36' E 003°22'4 4.4
2014-Apr-11 17:33N 51°41' E 003°21'5 5.0
2014-Apr-11 16:30N 51°44' E 003°28'4 4.1
2014-Apr-11 15:33N 51°47' E 003°32'3 2.7
2014-Apr-11 14:32N 51°49' E 003°35'3 2.7
2014-Apr-11 13:32N 51°51' E 003°39'3 3.6
2014-Apr-11 12:33N 51°53' E 003°43'3 2.9
2014-Apr-11 11:33N 51°54' E 003°47'3 3.0
2014-Apr-11 10:33N 51°56' E 003°51'4 3.5
2014-Apr-11 09:33N 51°59' E 003°55'5 4.6
2014-Apr-11 08:33N 51°60' E 004°02'8 7.5
2014-Apr-11 07:33N 51°56' E 004°13'7 6.9
2014-Apr-11 06:33N 51°54' E 004°23'2 2.4
2014-Apr-11 05:33N 51°54' E 004°27'0 0.0
2014-Apr-11 04:33N 51°54' E 004°27'0 0.0
2014-Apr-11 03:33N 51°54' E 004°27'0 0.0
2014-Apr-11 02:33N 51°54' E 004°27'0 0.0
2014-Apr-11 01:33N 51°54' E 004°27'0 0.0
2014-Apr-11 00:33N 51°54' E 004°27'0 0.0
2014-Apr-10 23:30N 51°54' E 004°27'0 0.0
2014-Apr-10 22:33N 51°54' E 004°27'0 0.0
2014-Apr-10 21:33N 51°54' E 004°27'0 0.0
2014-Apr-10 19:33N 51°54' E 004°27'0 0.0
2014-Apr-10 18:30N 51°54' E 004°27'0 0.0
2014-Apr-10 17:30N 51°54' E 004°27'0 0.0
2014-Apr-10 16:33N 51°54' E 004°27'0 0.0
2014-Apr-10 15:30N 51°54' E 004°27'0 0.0
2014-Apr-10 14:33N 51°54' E 004°27'0 0.0
2014-Apr-10 13:33N 51°54' E 004°27'0 0.0
2014-Apr-10 11:30N 51°54' E 004°27'0 0.0
2014-Apr-10 10:33N 51°54' E 004°27'0 0.0
2014-Apr-10 09:33N 51°54' E 004°27'0 0.0
2014-Apr-10 08:33N 51°54' E 004°27'0 0.0
2014-Apr-10 07:33N 51°54' E 004°27'0 0.0
2014-Apr-10 06:33N 51°54' E 004°27'0 0.0
2014-Apr-10 05:33N 51°54' E 004°27'0 0.0
2014-Apr-10 04:33N 51°54' E 004°27'0 0.0
2014-Apr-10 03:33N 51°54' E 004°27'0 0.0
2014-Apr-10 02:32N 51°54' E 004°27'0 0.0
2014-Apr-10 01:33N 51°54' E 004°27'0 0.0
2014-Apr-10 00:32N 51°54' E 004°27'0 0.0
2014-Apr-09 23:32N 51°54' E 004°27'0 0.0
2014-Apr-09 22:32N 51°54' E 004°27'0 0.0
2014-Apr-09 21:32N 51°54' E 004°27'0 0.0
2014-Apr-09 20:32N 51°54' E 004°27'0 0.0
2014-Apr-09 19:32N 51°54' E 004°27'0 0.0
2014-Apr-09 18:32N 51°54' E 004°27'0 0.0
2014-Apr-09 17:32N 51°54' E 004°27'  

Dump ship's entire track history

sailing weather and tide predictions

Eendracht — PDVN — position and weather